createdAt,value
2019-01-17T00:04:12.386Z,56.11
2019-01-17T00:09:33.136Z,56.37
2019-01-17T00:14:49.927Z,55.89
2019-01-17T00:20:14.489Z,55.83
2019-01-17T00:25:26.564Z,56.00
2019-01-17T00:30:46.971Z,55.96
2019-01-17T00:36:06.826Z,56.27
2019-01-17T00:41:14.803Z,56.61
2019-01-17T00:46:25.784Z,56.72
2019-01-17T00:51:34.008Z,56.81
2019-01-17T00:56:58.006Z,56.36
2019-01-17T01:02:14.121Z,56.19
2019-01-17T01:07:38.902Z,56.66
2019-01-17T01:13:01.818Z,57.21
2019-01-17T01:18:18.422Z,56.65
2019-01-17T01:23:29.887Z,57.20
2019-01-17T01:28:41.530Z,56.42
2019-01-17T01:33:57.931Z,56.44
2019-01-17T01:39:23.561Z,56.64
2019-01-17T01:44:37.727Z,57.08
2019-01-17T01:50:05.065Z,57.35
2019-01-17T01:55:12.347Z,56.83
2019-01-17T02:00:19.114Z,57.00
2019-01-17T02:05:27.376Z,56.53
2019-01-17T02:10:34.480Z,56.80
2019-01-17T02:15:41.582Z,56.13
2019-01-17T02:20:49.293Z,56.63
2019-01-17T02:25:56.435Z,57.31
2019-01-17T02:31:03.409Z,56.13
2019-01-17T02:36:10.365Z,56.82
2019-01-17T02:41:17.503Z,56.04
2019-01-17T02:46:25.538Z,56.70
2019-01-17T02:51:32.837Z,56.27
2019-01-17T02:56:40.325Z,55.85
2019-01-17T03:01:49.457Z,55.24
2019-01-17T03:06:56.985Z,54.80
2019-01-17T03:12:03.585Z,54.58
2019-01-17T03:17:12.000Z,54.29
2019-01-17T03:22:19.618Z,54.86
2019-01-17T03:27:27.119Z,54.53
2019-01-17T03:32:34.814Z,54.19
2019-01-17T03:37:42.090Z,54.45
2019-01-17T03:42:49.877Z,54.04
2019-01-17T03:47:57.496Z,54.47
2019-01-17T03:53:05.397Z,54.32
2019-01-17T03:58:13.241Z,54.89
2019-01-17T04:03:22.244Z,55.39
2019-01-17T04:08:29.678Z,55.02
2019-01-17T04:13:37.879Z,55.56
2019-01-17T04:18:45.182Z,55.78
2019-01-17T04:23:55.481Z,55.34
2019-01-17T04:29:02.812Z,55.29
2019-01-17T04:34:11.617Z,54.81
2019-01-17T04:39:19.014Z,55.02
2019-01-17T04:44:26.921Z,55.06
2019-01-17T04:49:35.918Z,55.12
2019-01-17T04:54:43.417Z,55.10
2019-01-17T04:59:52.724Z,55.28
2019-01-17T05:05:00.583Z,55.25
2019-01-17T05:10:11.758Z,54.90
2019-01-17T05:15:19.468Z,54.94
2019-01-17T05:20:28.494Z,55.77
2019-01-17T05:25:36.313Z,55.94
2019-01-17T05:30:45.213Z,56.14
2019-01-17T05:35:52.795Z,55.92
2019-01-17T05:41:00.773Z,56.88
2019-01-17T05:46:09.342Z,55.18
2019-01-17T05:51:18.196Z,56.48
2019-01-17T05:56:25.550Z,57.37
2019-01-17T06:01:33.783Z,57.06
2019-01-17T06:06:41.580Z,56.99
2019-01-17T06:11:48.913Z,57.30
2019-01-17T06:16:56.313Z,57.88
2019-01-17T06:22:04.164Z,59.00
2019-01-17T06:27:11.288Z,58.68
2019-01-17T06:32:19.114Z,59.51
2019-01-17T06:37:27.647Z,59.74
2019-01-17T06:42:34.363Z,59.77
2019-01-17T06:47:42.508Z,59.18
2019-01-17T06:52:50.303Z,58.89
2019-01-17T06:57:58.433Z,59.08
2019-01-17T07:03:06.815Z,59.68
2019-01-17T07:08:13.801Z,58.67
2019-01-17T07:13:23.895Z,58.97
2019-01-17T07:18:30.978Z,58.86
2019-01-17T07:23:38.318Z,59.45
2019-01-17T07:28:48.461Z,61.33
2019-01-17T07:33:55.240Z,62.43
2019-01-17T07:39:03.225Z,61.23
2019-01-17T07:44:09.784Z,61.12
2019-01-17T07:49:17.323Z,61.97
2019-01-17T07:54:24.701Z,61.13
2019-01-17T07:59:32.345Z,60.77
2019-01-17T08:04:39.192Z,61.00
2019-01-17T08:09:47.207Z,61.02
2019-01-17T08:14:53.324Z,62.57
2019-01-17T08:20:01.545Z,61.04
2019-01-17T08:25:11.433Z,60.85
2019-01-17T08:30:25.152Z,60.35
2019-01-17T08:35:33.445Z,60.87
2019-01-17T08:40:41.222Z,60.53
2019-01-17T08:45:48.031Z,59.19
2019-01-17T08:50:56.096Z,60.14
2019-01-17T08:56:03.268Z,60.63
2019-01-17T09:01:10.374Z,60.09
2019-01-17T09:06:17.869Z,58.26
2019-01-17T09:11:24.611Z,58.10
2019-01-17T09:16:32.083Z,59.36
2019-01-17T09:21:39.485Z,58.46
2019-01-17T09:26:48.288Z,59.05
2019-01-17T09:31:55.478Z,58.22
2019-01-17T09:37:03.407Z,57.91
2019-01-17T09:42:11.178Z,58.38
2019-01-17T09:47:18.317Z,57.93
2019-01-17T09:52:26.710Z,56.88
2019-01-17T09:57:34.854Z,55.85
2019-01-17T10:02:42.768Z,56.55
2019-01-17T10:07:51.508Z,55.55
2019-01-17T10:12:59.224Z,55.58
2019-01-17T10:18:24.282Z,55.22
2019-01-17T10:23:56.892Z,55.17
2019-01-17T10:29:09.268Z,54.25
2019-01-17T10:34:21.261Z,55.48
2019-01-17T10:40:00.417Z,55.86
2019-01-17T10:45:16.252Z,54.57
2019-01-17T10:50:46.636Z,55.45
2019-01-17T10:56:15.329Z,53.62
2019-01-17T11:01:25.871Z,54.18
2019-01-17T11:06:47.769Z,54.19
2019-01-17T11:12:23.132Z,55.34
2019-01-17T11:17:47.731Z,54.61
2019-01-17T11:23:09.454Z,54.59
2019-01-17T11:28:18.270Z,53.41
2019-01-17T11:33:40.871Z,54.87
2019-01-17T11:38:50.406Z,55.12
2019-01-17T11:44:25.742Z,54.39
2019-01-17T11:49:53.971Z,53.73
2019-01-17T11:55:08.612Z,54.48
2019-01-17T12:00:33.221Z,53.55
2019-01-17T12:05:39.143Z,54.45
2019-01-17T12:10:45.381Z,53.23
2019-01-17T12:15:52.022Z,52.89
2019-01-17T12:20:57.753Z,52.96
2019-01-17T12:26:05.023Z,51.79
2019-01-17T12:31:11.534Z,50.83
2019-01-17T12:36:18.534Z,51.31
2019-01-17T12:41:26.820Z,51.85
2019-01-17T12:46:33.511Z,50.11
2019-01-17T12:51:39.613Z,49.74
2019-01-17T12:56:46.046Z,48.79
2019-01-17T13:01:51.687Z,47.92
2019-01-17T13:06:57.477Z,48.07
2019-01-17T13:12:03.978Z,47.70
2019-01-17T13:17:10.074Z,47.28
2019-01-17T13:22:15.732Z,46.79
2019-01-17T13:27:22.799Z,46.72
2019-01-17T13:32:29.390Z,46.70
2019-01-17T13:37:36.780Z,47.01
2019-01-17T13:42:44.911Z,46.34
2019-01-17T13:47:53.010Z,45.43
2019-01-17T13:53:01.859Z,45.10
2019-01-17T13:58:10.997Z,44.36
2019-01-17T14:03:17.245Z,45.39
2019-01-17T14:08:24.297Z,44.80
2019-01-17T14:13:31.211Z,44.46
2019-01-17T14:18:39.540Z,44.42
2019-01-17T14:23:48.031Z,44.52
2019-01-17T14:28:56.095Z,45.09
2019-01-17T14:34:02.700Z,44.22
2019-01-17T14:39:09.451Z,44.05
2019-01-17T14:44:16.653Z,43.61
2019-01-17T14:49:24.499Z,43.42
2019-01-17T14:54:32.409Z,43.98
2019-01-17T14:59:40.144Z,44.64
2019-01-17T15:04:48.066Z,45.20
2019-01-17T15:09:54.047Z,46.14
2019-01-17T15:15:00.185Z,46.52
2019-01-17T15:20:10.580Z,46.59
2019-01-17T15:25:16.397Z,46.81
2019-01-17T15:30:27.066Z,46.90
2019-01-17T15:35:33.564Z,47.48
2019-01-17T15:40:39.445Z,47.37
2019-01-17T15:45:46.323Z,47.88
2019-01-17T15:50:53.654Z,47.80
2019-01-17T15:56:01.665Z,48.84
2019-01-17T16:01:08.838Z,48.57
2019-01-17T16:06:16.142Z,48.89
2019-01-17T16:11:22.239Z,48.76
2019-01-17T16:16:29.392Z,49.42
2019-01-17T16:21:37.464Z,50.56
2019-01-17T16:26:43.199Z,50.49
2019-01-17T16:31:48.961Z,50.66
2019-01-17T16:36:57.642Z,51.58
2019-01-17T16:42:03.902Z,52.84
2019-01-17T16:47:10.586Z,53.05
2019-01-17T16:52:16.786Z,53.52
2019-01-17T16:57:23.864Z,53.93
2019-01-17T17:02:31.614Z,53.93
2019-01-17T17:07:38.695Z,54.71
2019-01-17T17:12:44.691Z,53.58
2019-01-17T17:17:51.216Z,53.79
2019-01-17T17:22:57.269Z,54.24
2019-01-17T17:28:03.053Z,56.14
2019-01-17T17:33:09.157Z,56.84
2019-01-17T17:38:15.006Z,58.53
2019-01-17T17:43:21.055Z,59.67
2019-01-17T17:48:28.280Z,60.29
2019-01-17T17:53:34.228Z,61.84
2019-01-17T17:58:40.943Z,62.56
2019-01-17T18:03:47.926Z,62.53
2019-01-17T18:08:54.478Z,63.00
2019-01-17T18:14:00.768Z,63.54
2019-01-17T18:19:06.728Z,63.82
2019-01-17T18:24:12.880Z,65.85
2019-01-17T18:29:18.450Z,65.23
2019-01-17T18:34:25.029Z,65.41
2019-01-17T18:39:31.676Z,66.02
2019-01-17T18:44:37.841Z,67.39
2019-01-17T18:49:44.173Z,67.24
2019-01-17T18:54:52.146Z,67.00
2019-01-17T18:59:58.155Z,67.26
2019-01-17T19:05:06.340Z,67.82
2019-01-17T19:10:14.458Z,67.60
2019-01-17T19:15:31.812Z,67.10
2019-01-17T19:20:38.316Z,66.71
2019-01-17T19:25:44.684Z,66.64
2019-01-17T19:30:51.294Z,67.19
2019-01-17T19:35:57.025Z,67.90
2019-01-17T19:41:03.562Z,67.23
2019-01-17T19:46:10.196Z,68.42
2019-01-17T19:51:17.566Z,66.67
2019-01-17T19:56:23.662Z,67.71
2019-01-17T20:01:31.430Z,68.14
2019-01-17T20:06:37.414Z,66.58
2019-01-17T20:11:42.975Z,65.91
2019-01-17T20:16:49.492Z,66.28
2019-01-17T20:21:55.702Z,66.50
2019-01-17T20:27:03.064Z,65.30
2019-01-17T20:32:09.363Z,66.04
2019-01-17T20:37:15.177Z,64.71
2019-01-17T20:42:21.279Z,65.99
2019-01-17T20:47:27.564Z,65.53
2019-01-17T20:52:33.482Z,65.11
2019-01-17T20:57:42.189Z,63.33
2019-01-17T21:02:48.296Z,63.79
2019-01-17T21:07:55.177Z,63.39
2019-01-17T21:13:00.863Z,62.81
2019-01-17T21:18:07.713Z,63.40
2019-01-17T21:23:13.568Z,63.21
2019-01-17T21:28:19.906Z,63.14
2019-01-17T21:33:28.295Z,64.81
2019-01-17T21:38:35.277Z,65.09
2019-01-17T21:43:41.317Z,64.58
2019-01-17T21:48:48.096Z,63.98
2019-01-17T21:53:54.215Z,64.77
2019-01-17T21:58:59.827Z,62.93
2019-01-17T22:04:05.990Z,62.97
2019-01-17T22:09:31.469Z,63.23
2019-01-17T22:14:38.386Z,60.85
2019-01-17T22:19:45.211Z,62.21
2019-01-17T22:24:52.152Z,61.75
2019-01-17T22:29:58.596Z,62.37
2019-01-17T22:35:05.989Z,62.96
2019-01-17T22:40:15.073Z,62.65
2019-01-17T22:45:30.822Z,62.51
2019-01-17T22:50:38.392Z,62.82
2019-01-17T22:55:44.893Z,61.60
2019-01-17T23:00:55.327Z,61.85
2019-01-17T23:06:04.156Z,62.70
2019-01-17T23:11:09.850Z,62.37
2019-01-17T23:16:17.051Z,61.71
2019-01-17T23:21:22.719Z,62.20
2019-01-17T23:26:29.845Z,64.66
2019-01-17T23:31:36.461Z,65.36
2019-01-17T23:36:42.644Z,65.28
2019-01-17T23:41:48.991Z,65.96
2019-01-17T23:46:54.982Z,64.69
2019-01-17T23:52:01.688Z,65.17
2019-01-17T23:57:07.916Z,63.91
